sensor_id;sensor_type;location;lat;lon;timestamp;P1;durP1;ratioP1;P2;durP2;ratioP2
45382;SDS011;42455;51.660;5.824;2022-09-12T00:03:50;8.0;;;7.0;;
45382;SDS011;42455;51.660;5.824;2022-09-12T00:08:56;9.0;;;8.0;;
45382;SDS011;42455;51.660;5.824;2022-09-12T00:14:02;9.0;;;8.0;;
45382;SDS011;42455;51.660;5.824;2022-09-12T00:19:09;9.0;;;9.0;;
45382;SDS011;42455;51.660;5.824;2022-09-12T00:24:14;10.0;;;9.0;;
45382;SDS011;42455;51.660;5.824;2022-09-12T00:29:21;11.5;;;10.0;;
45382;SDS011;42455;51.660;5.824;2022-09-12T00:34:27;11.0;;;10.0;;
45382;SDS011;42455;51.660;5.824;2022-09-12T00:39:33;12.0;;;11.0;;
45382;SDS011;42455;51.660;5.824;2022-09-12T00:44:52;11.0;;;10.0;;
45382;SDS011;42455;51.660;5.824;2022-09-12T00:49:50;10.0;;;9.0;;
45382;SDS011;42455;51.660;5.824;2022-09-12T00:54:59;10.0;;;9.0;;
45382;SDS011;42455;51.660;5.824;2022-09-12T00:59:58;11.0;;;10.0;;
45382;SDS011;42455;51.660;5.824;2022-09-12T01:05:05;11.0;;;10.0;;
45382;SDS011;42455;51.660;5.824;2022-09-12T01:10:10;13.0;;;12.0;;
45382;SDS011;42455;51.660;5.824;2022-09-12T01:15:17;10.0;;;10.0;;
45382;SDS011;42455;51.660;5.824;2022-09-12T01:21:31;9.0;;;8.0;;
45382;SDS011;42455;51.660;5.824;2022-09-12T01:27:43;10.0;;;9.0;;
45382;SDS011;42455;51.660;5.824;2022-09-12T01:33:32;13.0;;;12.0;;
45382;SDS011;42455;51.660;5.824;2022-09-12T01:37:52;14.0;;;12.0;;
45382;SDS011;42455;51.660;5.824;2022-09-12T01:42:40;13.0;;;12.0;;
45382;SDS011;42455;51.660;5.824;2022-09-12T01:46:18;15.0;;;13.0;;
45382;SDS011;42455;51.660;5.824;2022-09-12T01:51:00;15.0;;;13.0;;
45382;SDS011;42455;51.660;5.824;2022-09-12T01:56:06;16.0;;;14.0;;
45382;SDS011;42455;51.660;5.824;2022-09-12T02:01:11;16.0;;;14.0;;
45382;SDS011;42455;51.660;5.824;2022-09-12T02:06:17;16.0;;;14.0;;
45382;SDS011;42455;51.660;5.824;2022-09-12T02:11:23;13.0;;;12.0;;
45382;SDS011;42455;51.660;5.824;2022-09-12T02:16:30;13.0;;;12.0;;
45382;SDS011;42455;51.660;5.824;2022-09-12T02:21:35;11.0;;;10.0;;
45382;SDS011;42455;51.660;5.824;2022-09-12T02:26:43;12.0;;;11.0;;
45382;SDS011;42455;51.660;5.824;2022-09-12T02:31:48;13.0;;;12.0;;
45382;SDS011;42455;51.660;5.824;2022-09-12T02:37:10;14.0;;;12.0;;
45382;SDS011;42455;51.660;5.824;2022-09-12T02:42:00;12.0;;;11.0;;
45382;SDS011;42455;51.660;5.824;2022-09-12T02:47:11;12.0;;;11.0;;
45382;SDS011;42455;51.660;5.824;2022-09-12T02:52:13;12.0;;;11.0;;
45382;SDS011;42455;51.660;5.824;2022-09-12T02:57:19;14.0;;;13.0;;
45382;SDS011;42455;51.660;5.824;2022-09-12T03:02:34;15.0;;;14.0;;
45382;SDS011;42455;51.660;5.824;2022-09-12T03:08:08;16.0;;;15.0;;
45382;SDS011;42455;51.660;5.824;2022-09-12T03:13:07;14.0;;;13.0;;
45382;SDS011;42455;51.660;5.824;2022-09-12T03:18:22;15.0;;;13.0;;
45382;SDS011;42455;51.660;5.824;2022-09-12T03:27:58;15.0;;;14.0;;
45382;SDS011;42455;51.660;5.824;2022-09-12T03:33:00;16.0;;;14.0;;
45382;SDS011;42455;51.660;5.824;2022-09-12T03:38:07;16.0;;;14.0;;
45382;SDS011;42455;51.660;5.824;2022-09-12T03:43:12;17.0;;;16.0;;
45382;SDS011;42455;51.660;5.824;2022-09-12T03:48:18;19.0;;;17.0;;
45382;SDS011;42455;51.660;5.824;2022-09-12T03:53:24;19.0;;;17.0;;
45382;SDS011;42455;51.660;5.824;2022-09-12T03:58:30;19.0;;;17.0;;
45382;SDS011;42455;51.660;5.824;2022-09-12T04:03:37;22.0;;;18.0;;
45382;SDS011;42455;51.660;5.824;2022-09-12T04:08:43;18.0;;;16.0;;
45382;SDS011;42455;51.660;5.824;2022-09-12T04:13:49;19.0;;;17.0;;
45382;SDS011;42455;51.660;5.824;2022-09-12T04:18:55;19.5;;;17.0;;
45382;SDS011;42455;51.660;5.824;2022-09-12T04:24:00;18.0;;;16.0;;
45382;SDS011;42455;51.660;5.824;2022-09-12T04:29:07;17.0;;;15.0;;
45382;SDS011;42455;51.660;5.824;2022-09-12T04:34:13;17.0;;;15.0;;
45382;SDS011;42455;51.660;5.824;2022-09-12T04:39:19;19.0;;;17.0;;
45382;SDS011;42455;51.660;5.824;2022-09-12T04:44:25;19.5;;;17.0;;
45382;SDS011;42455;51.660;5.824;2022-09-12T04:49:31;20.0;;;18.0;;
45382;SDS011;42455;51.660;5.824;2022-09-12T04:54:38;23.0;;;21.0;;
45382;SDS011;42455;51.660;5.824;2022-09-12T04:59:44;23.0;;;20.0;;
45382;SDS011;42455;51.660;5.824;2022-09-12T05:04:50;21.0;;;19.0;;
45382;SDS011;42455;51.660;5.824;2022-09-12T05:09:56;20.0;;;18.0;;
45382;SDS011;42455;51.660;5.824;2022-09-12T05:15:03;21.5;;;18.0;;
45382;SDS011;42455;51.660;5.824;2022-09-12T05:20:09;22.0;;;19.0;;
45382;SDS011;42455;51.660;5.824;2022-09-12T05:25:15;24.0;;;20.0;;
45382;SDS011;42455;51.660;5.824;2022-09-12T05:30:20;24.0;;;21.0;;
45382;SDS011;42455;51.660;5.824;2022-09-12T05:35:26;28.0;;;23.0;;
45382;SDS011;42455;51.660;5.824;2022-09-12T05:40:33;28.5;;;25.0;;
45382;SDS011;42455;51.660;5.824;2022-09-12T05:45:38;33.5;;;27.0;;
45382;SDS011;42455;51.660;5.824;2022-09-12T05:50:44;34.0;;;27.0;;
45382;SDS011;42455;51.660;5.824;2022-09-12T05:55:50;34.0;;;27.0;;
45382;SDS011;42455;51.660;5.824;2022-09-12T06:01:00;36.0;;;28.0;;
45382;SDS011;42455;51.660;5.824;2022-09-12T06:06:03;40.5;;;31.0;;
45382;SDS011;42455;51.660;5.824;2022-09-12T06:11:10;41.0;;;31.0;;
45382;SDS011;42455;51.660;5.824;2022-09-12T06:16:16;45.0;;;33.5;;
45382;SDS011;42455;51.660;5.824;2022-09-12T06:21:22;42.0;;;34.0;;
45382;SDS011;42455;51.660;5.824;2022-09-12T06:26:28;46.0;;;34.0;;
45382;SDS011;42455;51.660;5.824;2022-09-12T06:31:35;50.0;;;36.0;;
45382;SDS011;42455;51.660;5.824;2022-09-12T06:36:41;49.5;;;36.5;;
45382;SDS011;42455;51.660;5.824;2022-09-12T06:41:46;46.0;;;35.0;;
45382;SDS011;42455;51.660;5.824;2022-09-12T06:46:52;48.0;;;36.0;;
45382;SDS011;42455;51.660;5.824;2022-09-12T06:51:59;47.0;;;37.0;;
45382;SDS011;42455;51.660;5.824;2022-09-12T06:57:05;44.0;;;35.5;;
45382;SDS011;42455;51.660;5.824;2022-09-12T07:02:11;47.0;;;36.0;;
45382;SDS011;42455;51.660;5.824;2022-09-12T07:07:17;44.0;;;35.0;;
45382;SDS011;42455;51.660;5.824;2022-09-12T07:12:23;47.0;;;37.0;;
45382;SDS011;42455;51.660;5.824;2022-09-12T07:17:30;51.0;;;40.0;;
45382;SDS011;42455;51.660;5.824;2022-09-12T07:22:36;51.0;;;41.0;;
45382;SDS011;42455;51.660;5.824;2022-09-12T07:27:42;49.5;;;41.0;;
45382;SDS011;42455;51.660;5.824;2022-09-12T07:32:50;48.0;;;40.0;;
45382;SDS011;42455;51.660;5.824;2022-09-12T07:37:54;44.0;;;37.0;;
45382;SDS011;42455;51.660;5.824;2022-09-12T07:42:59;40.0;;;35.0;;
45382;SDS011;42455;51.660;5.824;2022-09-12T07:48:05;40.0;;;36.0;;
45382;SDS011;42455;51.660;5.824;2022-09-12T07:53:11;40.0;;;36.0;;
45382;SDS011;42455;51.660;5.824;2022-09-12T07:58:17;38.0;;;34.0;;
45382;SDS011;42455;51.660;5.824;2022-09-12T08:03:24;37.5;;;33.5;;
45382;SDS011;42455;51.660;5.824;2022-09-12T08:08:30;36.0;;;32.0;;
45382;SDS011;42455;51.660;5.824;2022-09-12T08:13:36;33.0;;;29.0;;
45382;SDS011;42455;51.660;5.824;2022-09-12T08:18:42;33.0;;;29.0;;
45382;SDS011;42455;51.660;5.824;2022-09-12T08:23:50;30.0;;;27.0;;
45382;SDS011;42455;51.660;5.824;2022-09-12T08:28:55;30.0;;;27.0;;
45382;SDS011;42455;51.660;5.824;2022-09-12T08:34:01;27.0;;;24.0;;
45382;SDS011;42455;51.660;5.824;2022-09-12T08:39:07;27.0;;;24.0;;
45382;SDS011;42455;51.660;5.824;2022-09-12T08:44:44;27.0;;;24.0;;
45382;SDS011;42455;51.660;5.824;2022-09-12T08:49:26;25.0;;;22.0;;
45382;SDS011;42455;51.660;5.824;2022-09-12T08:54:26;23.0;;;21.0;;
45382;SDS011;42455;51.660;5.824;2022-09-12T08:59:39;22.0;;;20.0;;
45382;SDS011;42455;51.660;5.824;2022-09-12T09:04:55;21.0;;;19.0;;
45382;SDS011;42455;51.660;5.824;2022-09-12T09:10:13;22.0;;;20.0;;
45382;SDS011;42455;51.660;5.824;2022-09-12T09:15:42;22.0;;;20.0;;
45382;SDS011;42455;51.660;5.824;2022-09-12T09:19:57;22.0;;;20.0;;
45382;SDS011;42455;51.660;5.824;2022-09-12T09:25:04;20.0;;;18.0;;
45382;SDS011;42455;51.660;5.824;2022-09-12T09:30:12;19.0;;;17.5;;
45382;SDS011;42455;51.660;5.824;2022-09-12T09:35:15;20.5;;;19.0;;
45382;SDS011;42455;51.660;5.824;2022-09-12T09:41:02;18.0;;;16.0;;
45382;SDS011;42455;51.660;5.824;2022-09-12T09:45:26;16.0;;;15.0;;
45382;SDS011;42455;51.660;5.824;2022-09-12T09:50:32;16.0;;;15.0;;
45382;SDS011;42455;51.660;5.824;2022-09-12T09:55:40;15.0;;;14.0;;
45382;SDS011;42455;51.660;5.824;2022-09-12T10:00:44;16.0;;;14.0;;
45382;SDS011;42455;51.660;5.824;2022-09-12T10:05:51;13.0;;;12.0;;
45382;SDS011;42455;51.660;5.824;2022-09-12T10:10:58;12.0;;;11.0;;
45382;SDS011;42455;51.660;5.824;2022-09-12T10:16:04;12.0;;;11.0;;
45382;SDS011;42455;51.660;5.824;2022-09-12T10:21:13;11.0;;;10.0;;
45382;SDS011;42455;51.660;5.824;2022-09-12T10:26:16;12.0;;;11.0;;
45382;SDS011;42455;51.660;5.824;2022-09-12T10:31:24;9.0;;;8.0;;
45382;SDS011;42455;51.660;5.824;2022-09-12T10:36:34;11.0;;;10.0;;
45382;SDS011;42455;51.660;5.824;2022-09-12T10:41:34;9.5;;;9.0;;
45382;SDS011;42455;51.660;5.824;2022-09-12T10:46:40;10.0;;;9.0;;
45382;SDS011;42455;51.660;5.824;2022-09-12T10:51:47;8.0;;;8.0;;
45382;SDS011;42455;51.660;5.824;2022-09-12T10:57:10;10.0;;;9.0;;
45382;SDS011;42455;51.660;5.824;2022-09-12T11:02:00;9.0;;;9.0;;
45382;SDS011;42455;51.660;5.824;2022-09-12T11:07:13;8.0;;;8.0;;
45382;SDS011;42455;51.660;5.824;2022-09-12T11:12:54;10.0;;;9.0;;
45382;SDS011;42455;51.660;5.824;2022-09-12T11:17:48;9.0;;;8.0;;
45382;SDS011;42455;51.660;5.824;2022-09-12T11:24:30;8.0;;;8.0;;
45382;SDS011;42455;51.660;5.824;2022-09-12T11:29:48;9.0;;;8.0;;
45382;SDS011;42455;51.660;5.824;2022-09-12T11:33:12;8.0;;;7.0;;
45382;SDS011;42455;51.660;5.824;2022-09-12T11:38:25;8.0;;;7.5;;
45382;SDS011;42455;51.660;5.824;2022-09-12T11:42:47;8.0;;;7.0;;
45382;SDS011;42455;51.660;5.824;2022-09-12T11:47:53;6.0;;;6.0;;
45382;SDS011;42455;51.660;5.824;2022-09-12T11:53:02;7.0;;;5.0;;
45382;SDS011;42455;51.660;5.824;2022-09-12T11:58:06;5.0;;;5.0;;
45382;SDS011;42455;51.660;5.824;2022-09-12T12:03:13;5.5;;;5.0;;
45382;SDS011;42455;51.660;5.824;2022-09-12T12:08:18;6.0;;;6.0;;
45382;SDS011;42455;51.660;5.824;2022-09-12T12:13:28;6.0;;;5.0;;
45382;SDS011;42455;51.660;5.824;2022-09-12T12:18:30;4.0;;;3.0;;
45382;SDS011;42455;51.660;5.824;2022-09-12T12:23:36;4.0;;;4.0;;
45382;SDS011;42455;51.660;5.824;2022-09-12T12:28:59;4.0;;;4.0;;
45382;SDS011;42455;51.660;5.824;2022-09-12T12:34:30;3.5;;;3.0;;
45382;SDS011;42455;51.660;5.824;2022-09-12T12:38:55;4.0;;;3.0;;
45382;SDS011;42455;51.660;5.824;2022-09-12T12:44:17;3.0;;;3.0;;
45382;SDS011;42455;51.660;5.824;2022-09-12T12:49:08;3.0;;;3.0;;
45382;SDS011;42455;51.660;5.824;2022-09-12T12:54:25;4.0;;;4.0;;
45382;SDS011;42455;51.660;5.824;2022-09-12T12:59:20;4.0;;;4.0;;
45382;SDS011;42455;51.660;5.824;2022-09-12T13:04:28;4.0;;;4.0;;
45382;SDS011;42455;51.660;5.824;2022-09-12T13:09:33;4.0;;;4.0;;
45382;SDS011;42455;51.660;5.824;2022-09-12T13:24:51;4.0;;;3.0;;
45382;SDS011;42455;51.660;5.824;2022-09-12T13:30:04;4.0;;;4.0;;
45382;SDS011;42455;51.660;5.824;2022-09-12T13:35:22;3.0;;;3.0;;
45382;SDS011;42455;51.660;5.824;2022-09-12T13:50:24;5.0;;;4.0;;
45382;SDS011;42455;51.660;5.824;2022-09-12T14:00:39;4.0;;;4.0;;
45382;SDS011;42455;51.660;5.824;2022-09-12T14:05:45;5.0;;;4.0;;
45382;SDS011;42455;51.660;5.824;2022-09-12T14:16:09;5.0;;;4.0;;
45382;SDS011;42455;51.660;5.824;2022-09-12T14:21:18;5.0;;;5.0;;
45382;SDS011;42455;51.660;5.824;2022-09-12T14:26:28;5.0;;;5.0;;
45382;SDS011;42455;51.660;5.824;2022-09-12T14:31:45;5.0;;;4.0;;
45382;SDS011;42455;51.660;5.824;2022-09-12T14:36:51;5.0;;;5.0;;
45382;SDS011;42455;51.660;5.824;2022-09-12T14:42:15;5.0;;;5.0;;
45382;SDS011;42455;51.660;5.824;2022-09-12T14:47:39;5.0;;;4.0;;
45382;SDS011;42455;51.660;5.824;2022-09-12T14:52:29;5.0;;;5.0;;
45382;SDS011;42455;51.660;5.824;2022-09-12T15:02:40;5.0;;;5.0;;
45382;SDS011;42455;51.660;5.824;2022-09-12T15:07:50;5.0;;;5.0;;
45382;SDS011;42455;51.660;5.824;2022-09-12T15:13:15;6.0;;;6.0;;
45382;SDS011;42455;51.660;5.824;2022-09-12T15:18:22;6.0;;;5.0;;
45382;SDS011;42455;51.660;5.824;2022-09-12T15:23:41;5.0;;;5.0;;
45382;SDS011;42455;51.660;5.824;2022-09-12T15:28:58;5.0;;;4.0;;
45382;SDS011;42455;51.660;5.824;2022-09-12T15:34:04;4.0;;;4.0;;
45382;SDS011;42455;51.660;5.824;2022-09-12T15:39:16;4.0;;;3.5;;
45382;SDS011;42455;51.660;5.824;2022-09-12T15:44:28;4.0;;;4.0;;
45382;SDS011;42455;51.660;5.824;2022-09-12T15:49:40;3.0;;;3.0;;
45382;SDS011;42455;51.660;5.824;2022-09-12T15:54:53;3.0;;;3.0;;
45382;SDS011;42455;51.660;5.824;2022-09-12T16:00:06;4.0;;;4.0;;
45382;SDS011;42455;51.660;5.824;2022-09-12T16:10:24;3.0;;;3.0;;
45382;SDS011;42455;51.660;5.824;2022-09-12T16:15:28;3.0;;;3.0;;
45382;SDS011;42455;51.660;5.824;2022-09-12T16:20:48;3.0;;;3.0;;
45382;SDS011;42455;51.660;5.824;2022-09-12T16:26:05;4.0;;;3.0;;
45382;SDS011;42455;51.660;5.824;2022-09-12T16:31:24;3.0;;;3.0;;
45382;SDS011;42455;51.660;5.824;2022-09-12T16:36:42;3.0;;;2.0;;
45382;SDS011;42455;51.660;5.824;2022-09-12T16:41:47;3.0;;;2.0;;
45382;SDS011;42455;51.660;5.824;2022-09-12T16:46:59;3.0;;;2.0;;
45382;SDS011;42455;51.660;5.824;2022-09-12T16:52:12;3.0;;;2.0;;
45382;SDS011;42455;51.660;5.824;2022-09-12T16:57:24;2.5;;;2.0;;
45382;SDS011;42455;51.660;5.824;2022-09-12T17:02:36;3.0;;;2.0;;
45382;SDS011;42455;51.660;5.824;2022-09-12T17:07:49;2.0;;;2.0;;
45382;SDS011;42455;51.660;5.824;2022-09-12T17:13:00;3.0;;;2.0;;
45382;SDS011;42455;51.660;5.824;2022-09-12T17:18:06;3.0;;;2.0;;
45382;SDS011;42455;51.660;5.824;2022-09-12T17:23:12;3.0;;;2.0;;
45382;SDS011;42455;51.660;5.824;2022-09-12T17:28:19;2.0;;;2.0;;
45382;SDS011;42455;51.660;5.824;2022-09-12T17:33:25;3.0;;;3.0;;
45382;SDS011;42455;51.660;5.824;2022-09-12T17:38:31;3.0;;;3.0;;
45382;SDS011;42455;51.660;5.824;2022-09-12T17:43:37;4.0;;;3.0;;
45382;SDS011;42455;51.660;5.824;2022-09-12T17:48:44;4.0;;;3.0;;
45382;SDS011;42455;51.660;5.824;2022-09-12T17:53:53;5.0;;;4.0;;
45382;SDS011;42455;51.660;5.824;2022-09-12T17:58:56;5.0;;;4.0;;
45382;SDS011;42455;51.660;5.824;2022-09-12T18:04:02;5.5;;;5.0;;
45382;SDS011;42455;51.660;5.824;2022-09-12T18:09:08;5.0;;;4.0;;
45382;SDS011;42455;51.660;5.824;2022-09-12T18:14:15;5.0;;;5.0;;
45382;SDS011;42455;51.660;5.824;2022-09-12T18:19:21;5.0;;;4.0;;
45382;SDS011;42455;51.660;5.824;2022-09-12T18:24:27;5.0;;;4.0;;
45382;SDS011;42455;51.660;5.824;2022-09-12T18:29:33;5.0;;;5.0;;
45382;SDS011;42455;51.660;5.824;2022-09-12T18:34:39;5.0;;;5.0;;
45382;SDS011;42455;51.660;5.824;2022-09-12T18:39:46;6.0;;;5.0;;
45382;SDS011;42455;51.660;5.824;2022-09-12T18:44:52;5.5;;;5.0;;
45382;SDS011;42455;51.660;5.824;2022-09-12T18:49:58;7.0;;;6.0;;
45382;SDS011;42455;51.660;5.824;2022-09-12T18:55:04;8.0;;;6.0;;
45382;SDS011;42455;51.660;5.824;2022-09-12T19:00:10;6.0;;;5.0;;
45382;SDS011;42455;51.660;5.824;2022-09-12T19:05:16;6.5;;;6.0;;
45382;SDS011;42455;51.660;5.824;2022-09-12T19:10:21;6.0;;;5.0;;
45382;SDS011;42455;51.660;5.824;2022-09-12T19:15:27;6.0;;;5.0;;
45382;SDS011;42455;51.660;5.824;2022-09-12T19:20:34;6.0;;;6.0;;
45382;SDS011;42455;51.660;5.824;2022-09-12T19:25:40;6.0;;;6.0;;
45382;SDS011;42455;51.660;5.824;2022-09-12T19:30:46;7.0;;;6.0;;
45382;SDS011;42455;51.660;5.824;2022-09-12T19:35:52;7.0;;;6.0;;
45382;SDS011;42455;51.660;5.824;2022-09-12T19:40:59;9.0;;;7.0;;
45382;SDS011;42455;51.660;5.824;2022-09-12T19:46:05;8.0;;;8.0;;
45382;SDS011;42455;51.660;5.824;2022-09-12T19:51:11;9.0;;;8.0;;
45382;SDS011;42455;51.660;5.824;2022-09-12T19:56:17;8.0;;;7.0;;
45382;SDS011;42455;51.660;5.824;2022-09-12T20:01:24;8.0;;;7.0;;
45382;SDS011;42455;51.660;5.824;2022-09-12T20:06:29;8.0;;;8.0;;
45382;SDS011;42455;51.660;5.824;2022-09-12T20:11:35;7.5;;;7.0;;
45382;SDS011;42455;51.660;5.824;2022-09-12T20:16:42;8.0;;;7.0;;
45382;SDS011;42455;51.660;5.824;2022-09-12T20:21:48;8.0;;;7.0;;
45382;SDS011;42455;51.660;5.824;2022-09-12T20:26:54;8.0;;;7.0;;
45382;SDS011;42455;51.660;5.824;2022-09-12T20:32:00;9.0;;;8.0;;
45382;SDS011;42455;51.660;5.824;2022-09-12T20:37:06;7.0;;;6.0;;
45382;SDS011;42455;51.660;5.824;2022-09-12T20:42:13;8.0;;;7.0;;
45382;SDS011;42455;51.660;5.824;2022-09-12T20:47:19;8.0;;;7.0;;
45382;SDS011;42455;51.660;5.824;2022-09-12T20:52:25;9.0;;;8.0;;
45382;SDS011;42455;51.660;5.824;2022-09-12T20:57:30;9.0;;;8.0;;
45382;SDS011;42455;51.660;5.824;2022-09-12T21:02:37;11.0;;;10.0;;
45382;SDS011;42455;51.660;5.824;2022-09-12T21:07:42;9.0;;;9.0;;
45382;SDS011;42455;51.660;5.824;2022-09-12T21:12:48;8.0;;;8.0;;
45382;SDS011;42455;51.660;5.824;2022-09-12T21:17:54;9.0;;;8.0;;
45382;SDS011;42455;51.660;5.824;2022-09-12T21:23:00;9.5;;;8.5;;
45382;SDS011;42455;51.660;5.824;2022-09-12T21:28:07;10.0;;;9.0;;
45382;SDS011;42455;51.660;5.824;2022-09-12T21:33:12;10.0;;;9.0;;
45382;SDS011;42455;51.660;5.824;2022-09-12T21:38:18;9.0;;;8.0;;
45382;SDS011;42455;51.660;5.824;2022-09-12T21:43:24;9.0;;;8.0;;
45382;SDS011;42455;51.660;5.824;2022-09-12T21:48:31;9.0;;;8.0;;
45382;SDS011;42455;51.660;5.824;2022-09-12T21:53:37;10.0;;;9.0;;
45382;SDS011;42455;51.660;5.824;2022-09-12T21:58:43;9.0;;;8.0;;
45382;SDS011;42455;51.660;5.824;2022-09-12T22:03:49;11.0;;;10.0;;
45382;SDS011;42455;51.660;5.824;2022-09-12T22:08:55;10.0;;;9.0;;
45382;SDS011;42455;51.660;5.824;2022-09-12T22:14:02;10.0;;;9.0;;
45382;SDS011;42455;51.660;5.824;2022-09-12T22:19:08;10.0;;;9.0;;
45382;SDS011;42455;51.660;5.824;2022-09-12T22:24:14;11.0;;;10.0;;
45382;SDS011;42455;51.660;5.824;2022-09-12T22:29:20;12.0;;;11.0;;
45382;SDS011;42455;51.660;5.824;2022-09-12T22:34:27;14.0;;;13.0;;
45382;SDS011;42455;51.660;5.824;2022-09-12T22:39:33;16.0;;;14.0;;
45382;SDS011;42455;51.660;5.824;2022-09-12T22:44:39;14.0;;;13.0;;
45382;SDS011;42455;51.660;5.824;2022-09-12T22:49:45;13.0;;;11.0;;
45382;SDS011;42455;51.660;5.824;2022-09-12T22:54:50;12.0;;;11.0;;
45382;SDS011;42455;51.660;5.824;2022-09-12T22:59:56;13.0;;;12.0;;
45382;SDS011;42455;51.660;5.824;2022-09-12T23:05:03;16.0;;;14.0;;
45382;SDS011;42455;51.660;5.824;2022-09-12T23:10:09;15.0;;;14.0;;
45382;SDS011;42455;51.660;5.824;2022-09-12T23:15:15;12.0;;;11.0;;
45382;SDS011;42455;51.660;5.824;2022-09-12T23:20:21;12.0;;;11.0;;
45382;SDS011;42455;51.660;5.824;2022-09-12T23:25:27;12.0;;;11.0;;
45382;SDS011;42455;51.660;5.824;2022-09-12T23:30:34;12.0;;;11.0;;
45382;SDS011;42455;51.660;5.824;2022-09-12T23:35:40;13.0;;;12.0;;
45382;SDS011;42455;51.660;5.824;2022-09-12T23:40:46;13.0;;;12.0;;
45382;SDS011;42455;51.660;5.824;2022-09-12T23:45:52;14.0;;;12.0;;
45382;SDS011;42455;51.660;5.824;2022-09-12T23:50:58;14.0;;;13.0;;
45382;SDS011;42455;51.660;5.824;2022-09-12T23:56:05;14.0;;;12.5;;
